Time;durP1;ratioP1;P1;durP2;ratioP2;P2;SDS_P1;SDS_P2;PMS_P1;PMS_P2;Temp;Humidity;BMP_temperature;BMP_pressure;BME280_temperature;BME280_humidity;BME280_pressure;Samples;Min_cycle;Max_cycle;Signal;HPM_P1;HPM_P2
2023/05/08 03:08:52;;;;;;;;;;;;;;;18.04;74.95;97254.63;4275303;27;10295;-71
2023/05/08 03:10:58;;;;;;;;;;;;;;;18.33;74.31;97252.09;4253975;27;5673;-71
2023/05/08 03:13:04;;;;;;;;;;;;;;;18.55;73.91;97255.03;4252025;27;5648;-71
2023/05/08 03:15:13;;;;;;;;;;;;;;;18.69;73.46;97248.44;4247380;27;5650;-72
2023/05/08 03:17:18;;;;;;;;;;;;;;;18.79;73.10;97247.84;4247786;27;5740;-71
2023/05/08 03:19:27;;;;;;;;;;;;;;;18.92;72.69;97244.13;4240888;27;5783;-71
2023/05/08 03:21:32;;;;;;;;;;;;;;;19.00;72.58;97247.22;4245629;27;5733;-73
2023/05/08 03:23:39;;;;;;;;;;;;;;;19.04;72.17;97247.59;4247599;27;5688;-73
2023/05/08 03:25:43;;;;;;;;;;;;;;;19.05;72.21;97238.50;4247674;27;5731;-73
2023/05/08 03:27:48;;;;;;;;;;;;;;;19.09;72.08;97245.81;4246722;27;5645;-72
2023/05/08 03:29:53;;;;;;;;;;;;;;;19.13;71.77;97238.94;4246910;27;6018;-72
2023/05/08 03:31:58;;;;;;;;;;;;;;;19.19;71.73;97238.00;4246717;27;5756;-72
2023/05/08 03:34:03;;;;;;;;;;;;;;;19.23;71.44;97241.00;4246794;27;5864;-72
2023/05/08 03:36:06;;;;;;;;;;;;;;;19.23;71.14;97238.31;4246677;27;5644;-72
2023/05/08 03:38:09;;;;;;;;;;;;;;;19.26;71.36;97239.75;4246441;27;5645;-72
2023/05/08 03:40:13;;;;;;;;;;;;;;;19.27;71.01;97226.09;4238227;27;5649;-72
2023/05/08 03:42:21;;;;;;;;;;;;;;;19.29;70.94;97231.22;4246855;27;5776;-72
2023/05/08 03:44:24;;;;;;;;;;;;;;;19.30;70.98;97224.81;4245722;27;5661;-72
2023/05/08 03:46:27;;;;;;;;;;;;;;;19.28;70.66;97222.38;4246725;27;5897;-73
2023/05/08 03:48:33;;;;;;;;;;;;;;;19.29;70.94;97228.53;4246161;27;6482;-72
2023/05/08 03:50:37;;;;;;;;;;;;;;;19.29;70.65;97228.53;4244647;27;5666;-72
2023/05/08 03:52:41;;;;;;;;;;;;;;;19.27;70.53;97230.66;4245862;27;6457;-72
2023/05/08 03:54:44;;;;;;;;;;;;;;;19.27;70.38;97226.09;4242523;27;5845;-72
2023/05/08 03:56:47;;;;;;;;;;;;;;;19.27;70.22;97233.31;4237402;27;5783;-72
2023/05/08 03:58:58;;;;;;;;;;;;;;;19.28;70.24;97227.72;4237732;27;5226;-73
2023/05/08 04:01:07;;;;;;;;;;;;;;;19.30;70.21;97232.84;4240411;27;5728;-72
2023/05/08 04:03:22;;;;;;;;;;;;;;;19.29;70.25;97229.34;4246229;27;5717;-72
2023/05/08 04:05:32;;;;;;;;;;;;;;;19.25;69.92;97233.53;4245307;27;5732;-72
2023/05/08 04:07:42;;;;;;;;;;;;;;;19.27;70.01;97236.00;4249654;27;5640;-72
2023/05/08 04:09:55;;;;;;;;;;;;;;;19.28;69.82;97232.28;4223366;27;5655;-72
2023/05/08 04:12:03;;;;;;;;;;;;;;;19.28;69.90;97234.97;4232452;28;5223;-72
2023/05/08 04:14:13;;;;;;;;;;;;;;;19.30;69.89;97243.56;4234285;28;5641;-72
2023/05/08 04:16:21;;;;;;;;;;;;;;;19.28;69.45;97241.13;4233008;28;5708;-72
2023/05/08 04:18:30;;;;;;;;;;;;;;;19.31;69.66;97254.06;4226005;28;5641;-72
2023/05/08 04:20:34;;;;;;;;;;;;;;;19.35;69.38;97254.38;4235114;28;5771;-72
2023/05/08 04:22:39;;;;;;;;;;;;;;;19.34;69.29;97242.03;4233595;28;5740;-72
2023/05/08 04:24:45;;;;;;;;;;;;;;;19.34;69.01;97248.19;4229774;28;5744;-73
2023/05/08 04:26:49;;;;;;;;;;;;;;;19.33;69.09;97251.13;4233700;28;5863;-73
2023/05/08 04:28:53;;;;;;;;;;;;;;;19.32;69.18;97246.81;4226912;28;5661;-73
2023/05/08 04:30:57;;;;;;;;;;;;;;;19.31;69.02;97246.00;4226823;28;5883;-73
2023/05/08 04:33:03;;;;;;;;;;;;;;;19.32;68.93;97239.59;4220320;28;7674;-73
2023/05/08 04:35:08;;;;;;;;;;;;;;;19.31;68.94;97250.56;4233721;28;5763;-73
2023/05/08 04:37:24;;;;;;;;;;;;;;;19.32;68.88;97249.50;4233255;28;5709;-73
2023/05/08 04:39:27;;;;;;;;;;;;;;;19.33;69.00;97259.97;4231111;27;5876;-73
2023/05/08 04:41:31;;;;;;;;;;;;;;;19.35;68.66;97257.06;4232038;28;5736;-73
2023/05/08 04:43:34;;;;;;;;;;;;;;;19.38;68.53;97254.75;4233677;28;5705;-72
2023/05/08 04:45:37;;;;;;;;;;;;;;;19.39;68.77;97256.38;4228656;28;5673;-73
2023/05/08 04:47:42;;;;;;;;;;;;;;;19.36;68.87;97250.66;4231535;28;5721;-72
2023/05/08 04:49:45;;;;;;;;;;;;;;;19.38;68.48;97253.94;4224902;28;5769;-73
2023/05/08 04:51:48;;;;;;;;;;;;;;;19.37;68.43;97252.31;4224586;28;6264;-73
2023/05/08 04:53:51;;;;;;;;;;;;;;;19.37;68.45;97253.13;4230456;28;5723;-73
2023/05/08 04:55:56;;;;;;;;;;;;;;;19.38;68.42;97253.94;4229576;28;5664;-73
2023/05/08 04:57:59;;;;;;;;;;;;;;;19.41;68.45;97259.63;4226285;28;5765;-73
2023/05/08 05:00:02;;;;;;;;;;;;;;;19.42;68.48;97252.38;4235047;28;5680;-73
2023/05/08 05:02:07;;;;;;;;;;;;;;;19.45;68.32;97254.59;4235413;28;5642;-73
2023/05/08 05:04:11;;;;;;;;;;;;;;;19.49;68.36;97263.81;4224580;28;5649;-73
2023/05/08 05:06:14;;;;;;;;;;;;;;;19.49;68.42;97264.63;4235235;28;6378;-73
2023/05/08 05:08:17;;;;;;;;;;;;;;;19.49;68.00;97261.94;4230514;28;5795;-68
2023/05/08 05:10:21;;;;;;;;;;;;;;;19.49;67.98;97255.75;4225393;28;5608;-80
2023/05/08 05:12:24;;;;;;;;;;;;;;;19.45;68.00;97251.91;4228768;27;5690;-81
2023/05/08 05:14:33;;;;;;;;;;;;;;;19.48;67.96;97256.81;4229433;28;5674;-80
2023/05/08 05:16:37;;;;;;;;;;;;;;;19.51;67.79;97259.00;4226112;28;5682;-81
2023/05/08 05:18:43;;;;;;;;;;;;;;;19.52;67.81;97260.63;4228508;28;5637;-80
2023/05/08 05:20:49;;;;;;;;;;;;;;;19.54;67.61;97269.25;4233365;28;5724;-81
2023/05/08 05:22:57;;;;;;;;;;;;;;;19.57;67.48;97262.63;4233554;28;5735;-80
2023/05/08 05:25:01;;;;;;;;;;;;;;;19.59;67.47;97268.56;4227474;28;5868;-80
2023/05/08 05:27:04;;;;;;;;;;;;;;;19.49;67.69;97250.41;4222479;28;5645;-80
2023/05/08 05:29:08;;;;;;;;;;;;;;;19.53;67.38;97266.81;4233763;28;5629;-80
2023/05/08 05:31:11;;;;;;;;;;;;;;;19.49;67.41;97256.56;4226584;28;5758;-80
2023/05/08 05:33:14;;;;;;;;;;;;;;;19.53;67.50;97266.81;4226236;28;5725;-79
2023/05/08 05:35:17;;;;;;;;;;;;;;;19.53;67.04;97264.94;4230225;28;7463;-79
2023/05/08 05:37:21;;;;;;;;;;;;;;;19.60;67.01;97283.63;4235099;28;5641;-80
2023/05/08 05:39:25;;;;;;;;;;;;;;;19.51;67.25;97267.06;4232768;28;5670;-80
2023/05/08 05:41:28;;;;;;;;;;;;;;;19.56;67.19;97267.16;4232949;28;6799;-80
2023/05/08 05:43:32;;;;;;;;;;;;;;;19.61;66.79;97280.69;4229718;28;6453;-79
2023/05/08 05:45:35;;;;;;;;;;;;;;;19.62;67.05;97285.00;4226748;28;5720;-78
2023/05/08 05:47:38;;;;;;;;;;;;;;;19.64;66.78;97282.06;4234672;28;5645;-75
2023/05/08 05:49:45;;;;;;;;;;;;;;;19.62;66.77;97284.19;4217674;28;5847;-76
2023/05/08 05:51:48;;;;;;;;;;;;;;;19.61;66.91;97282.56;4228910;28;5732;-76
2023/05/08 05:53:53;;;;;;;;;;;;;;;19.60;66.80;97289.78;4228756;28;5725;-76
2023/05/08 05:55:56;;;;;;;;;;;;;;;19.60;66.83;97284.44;4228710;28;5727;-76
2023/05/08 05:57:59;;;;;;;;;;;;;;;19.59;66.66;97282.78;4232244;28;5670;-75
2023/05/08 06:00:02;;;;;;;;;;;;;;;19.60;66.69;97284.44;4229238;27;6323;-75
2023/05/08 06:02:06;;;;;;;;;;;;;;;19.62;66.75;97290.38;4234093;28;5641;-76
2023/05/08 06:04:09;;;;;;;;;;;;;;;19.61;66.83;97288.75;4222606;28;5695;-76
2023/05/08 06:06:13;;;;;;;;;;;;;;;19.62;66.69;97287.69;4229157;28;5653;-79
2023/05/08 06:08:17;;;;;;;;;;;;;;;19.61;66.70;97291.44;4230064;28;5599;-79
2023/05/08 06:10:22;;;;;;;;;;;;;;;19.61;66.81;97299.47;4229733;28;5736;-79
2023/05/08 06:12:26;;;;;;;;;;;;;;;19.58;66.86;97291.06;4232059;28;5819;-78
2023/05/08 06:14:30;;;;;;;;;;;;;;;19.57;67.02;97300.97;4231199;27;5831;-78
2023/05/08 06:16:34;;;;;;;;;;;;;;;19.58;66.73;97302.59;4243730;27;5683;-74
2023/05/08 06:18:37;;;;;;;;;;;;;;;19.62;66.53;97297.59;4237386;27;5641;-74
2023/05/08 06:20:40;;;;;;;;;;;;;;;19.63;66.49;97300.03;4235061;27;5791;-74
2023/05/08 06:22:43;;;;;;;;;;;;;;;19.65;66.48;97305.97;4233449;28;5645;-74
2023/05/08 06:24:46;;;;;;;;;;;;;;;19.65;66.72;97297.94;4228586;28;5657;-74
2023/05/08 06:26:50;;;;;;;;;;;;;;;19.62;66.50;97301.09;4225728;28;5601;-74
2023/05/08 06:28:53;;;;;;;;;;;;;;;19.63;66.64;97310.78;4230753;28;5580;-74
2023/05/08 06:30:56;;;;;;;;;;;;;;;19.64;66.73;97298.97;4233232;28;5645;-75
2023/05/08 06:33:00;;;;;;;;;;;;;;;19.65;66.57;97303.28;4230578;28;5740;-75
2023/05/08 06:35:03;;;;;;;;;;;;;;;19.65;66.49;97302.47;4230125;28;5662;-75
2023/05/08 06:37:06;;;;;;;;;;;;;;;19.65;66.50;97294.44;4233957;28;5661;-74
2023/05/08 06:39:10;;;;;;;;;;;;;;;19.66;66.58;97302.25;4227152;27;5823;-75
2023/05/08 06:41:13;;;;;;;;;;;;;;;19.67;66.40;97297.69;4234089;28;5654;-75
2023/05/08 06:43:18;;;;;;;;;;;;;;;19.66;66.17;97296.06;4231803;28;5864;-75
2023/05/08 06:45:23;;;;;;;;;;;;;;;19.65;66.08;97300.63;4232494;27;5714;-73
2023/05/08 06:47:26;;;;;;;;;;;;;;;19.62;66.14;97298.41;4225028;27;5651;-73
2023/05/08 06:49:29;;;;;;;;;;;;;;;19.62;66.20;97290.38;4236058;27;6407;-73
2023/05/08 06:51:34;;;;;;;;;;;;;;;19.62;66.07;97294.91;4240704;27;5769;-73
2023/05/08 06:53:37;;;;;;;;;;;;;;;19.65;65.93;97289.88;4236256;27;5699;-73
2023/05/08 06:55:43;;;;;;;;;;;;;;;19.69;65.81;97299.06;4222772;28;5747;-76
2023/05/08 06:57:46;;;;;;;;;;;;;;;19.71;66.00;97297.00;4224826;28;5811;-75
2023/05/08 06:59:51;;;;;;;;;;;;;;;19.73;65.60;97292.19;4226537;28;5782;-75
2023/05/08 07:01:54;;;;;;;;;;;;;;;19.77;65.93;97297.88;4224914;28;5683;-75
2023/05/08 07:03:57;;;;;;;;;;;;;;;19.80;65.84;97299.28;4232700;28;5743;-76
2023/05/08 07:06:00;;;;;;;;;;;;;;;19.82;65.51;97297.16;4233249;28;5100;-76
2023/05/08 07:08:04;;;;;;;;;;;;;;;19.82;65.68;97291.78;4228606;28;5883;-75
2023/05/08 07:10:07;;;;;;;;;;;;;;;19.83;65.48;97298.81;4233425;28;5646;-76
2023/05/08 07:12:11;;;;;;;;;;;;;;;19.86;65.63;97298.31;4231609;28;5620;-75
2023/05/08 07:14:14;;;;;;;;;;;;;;;19.89;65.40;97297.84;4225881;28;5678;-75
2023/05/08 07:16:19;;;;;;;;;;;;;;;19.89;65.18;97298.66;4227915;28;5637;-76
2023/05/08 07:18:22;;;;;;;;;;;;;;;19.91;65.20;97301.09;4233422;28;5721;-75
2023/05/08 07:20:25;;;;;;;;;;;;;;;19.90;64.66;97299.47;4226045;28;5623;-75
2023/05/08 07:22:28;;;;;;;;;;;;;;;19.89;64.91;97300.53;4223163;28;5645;-75
2023/05/08 07:24:32;;;;;;;;;;;;;;;19.91;64.64;97301.91;4232853;28;5748;-75
2023/05/08 07:26:35;;;;;;;;;;;;;;;19.94;64.86;97301.44;4228754;28;5840;-76
2023/05/08 07:28:38;;;;;;;;;;;;;;;19.99;64.67;97298.03;4224452;27;5670;-75
2023/05/08 07:30:41;;;;;;;;;;;;;;;20.01;64.62;97293.22;4235980;27;5640;-75
2023/05/08 07:32:45;;;;;;;;;;;;;;;20.06;64.64;97294.16;4232351;27;5769;-75
2023/05/08 07:34:49;;;;;;;;;;;;;;;20.10;64.20;97297.16;4234815;27;5628;-76
2023/05/08 07:36:52;;;;;;;;;;;;;;;20.08;64.38;97296.59;4230243;28;5733;-76
2023/05/08 07:38:55;;;;;;;;;;;;;;;20.01;64.26;97286.00;4232139;27;5633;-76
2023/05/08 07:41:00;;;;;;;;;;;;;;;20.04;64.31;97296.22;4233222;27;5662;-76
2023/05/08 07:43:03;;;;;;;;;;;;;;;20.01;64.40;97291.34;4232538;27;6361;-75
2023/05/08 07:45:08;;;;;;;;;;;;;;;19.97;64.20;97300.16;4226404;27;5713;-76
2023/05/08 07:47:11;;;;;;;;;;;;;;;20.00;64.07;97294.28;4236643;27;5681;-75
2023/05/08 07:49:16;;;;;;;;;;;;;;;20.06;64.05;97296.03;4229777;28;5620;-76
2023/05/08 07:51:19;;;;;;;;;;;;;;;20.10;64.11;97283.72;4236105;27;5649;-76
2023/05/08 07:53:22;;;;;;;;;;;;;;;20.16;64.23;97293.53;4229174;28;5764;-76
2023/05/08 07:55:25;;;;;;;;;;;;;;;20.20;63.70;97289.28;4235752;27;5708;-75
2023/05/08 07:57:36;;;;;;;;;;;;;;;20.25;63.60;97289.34;4237569;27;5656;-75
2023/05/08 07:59:40;;;;;;;;;;;;;;;20.29;63.63;97293.22;4235058;27;5649;-76
2023/05/08 08:01:46;;;;;;;;;;;;;;;20.32;63.41;97292.72;4229866;27;5644;-75
2023/05/08 08:03:49;;;;;;;;;;;;;;;20.30;63.34;97294.84;4232990;28;5725;-76
2023/05/08 08:05:54;;;;;;;;;;;;;;;20.28;63.14;97283.53;4234001;28;5637;-76
2023/05/08 08:07:57;;;;;;;;;;;;;;;20.24;63.23;97290.41;4229141;27;5740;-75
2023/05/08 08:10:00;;;;;;;;;;;;;;;20.21;63.12;97287.41;4235723;28;6303;-75
2023/05/08 08:12:04;;;;;;;;;;;;;;;20.18;63.30;97296.78;4235803;28;5727;-76
2023/05/08 08:14:07;;;;;;;;;;;;;;;20.17;63.35;97305.88;4231205;27;5778;-76
2023/05/08 08:16:10;;;;;;;;;;;;;;;20.17;63.40;97292.47;4231071;27;5673;-76
2023/05/08 08:18:14;;;;;;;;;;;;;;;20.19;63.13;97294.91;4227345;27;5697;-76
2023/05/08 08:20:17;;;;;;;;;;;;;;;20.17;63.10;97289.78;4229104;27;5670;-75
2023/05/08 08:22:21;;;;;;;;;;;;;;;20.19;62.88;97286.84;4242101;27;5657;-76
2023/05/08 08:24:25;;;;;;;;;;;;;;;20.21;62.81;97290.91;4217476;28;5748;-76
2023/05/08 08:26:28;;;;;;;;;;;;;;;20.23;62.88;97286.09;4223004;27;5911;-75
2023/05/08 08:28:31;;;;;;;;;;;;;;;20.27;62.89;97284.59;4229192;28;5914;-75
2023/05/08 08:30:34;;;;;;;;;;;;;;;20.29;62.76;97278.97;4220787;27;7341;-75
2023/05/08 08:32:37;;;;;;;;;;;;;;;20.30;62.88;97289.47;4234622;28;5709;-75
2023/05/08 08:34:41;;;;;;;;;;;;;;;20.37;63.05;97281.22;4230014;28;5673;-76
2023/05/08 08:36:44;;;;;;;;;;;;;;;20.44;62.97;97281.94;4227115;28;5653;-76
2023/05/08 08:38:49;;;;;;;;;;;;;;;20.50;62.60;97274.75;4235506;28;5790;-76
2023/05/08 08:40:53;;;;;;;;;;;;;;;20.51;62.59;97271.84;4226951;27;5662;-76
2023/05/08 08:42:56;;;;;;;;;;;;;;;20.52;62.72;97269.97;4234590;28;5759;-76
2023/05/08 08:45:00;;;;;;;;;;;;;;;20.53;62.59;97272.41;4222979;28;5674;-76
2023/05/08 08:47:05;;;;;;;;;;;;;;;20.55;62.64;97270.28;4234800;27;5681;-76
2023/05/08 08:49:09;;;;;;;;;;;;;;;20.59;62.56;97275.97;4229428;28;5677;-76
2023/05/08 08:51:18;;;;;;;;;;;;;;;20.60;62.83;97272.22;4227776;27;5135;-76
2023/05/08 08:53:26;;;;;;;;;;;;;;;20.64;62.85;97271.50;4227159;28;5650;-76
2023/05/08 08:55:32;;;;;;;;;;;;;;;20.67;62.66;97272.88;4235143;28;5750;-76
2023/05/08 08:57:39;;;;;;;;;;;;;;;20.66;62.58;97271.25;4235182;27;5661;-76
2023/05/08 08:59:44;;;;;;;;;;;;;;;20.64;62.31;97274.19;4229795;28;5649;-76
2023/05/08 09:01:51;;;;;;;;;;;;;;;20.60;62.27;97274.91;4235251;27;5689;-76
2023/05/08 09:03:54;;;;;;;;;;;;;;;20.59;62.19;97276.78;4229542;28;5752;-76
2023/05/08 09:06:00;;;;;;;;;;;;;;;20.57;62.59;97272.72;4234027;28;5641;-77
2023/05/08 09:08:04;;;;;;;;;;;;;;;20.63;62.28;97274.44;4234760;28;5637;-76
2023/05/08 09:10:14;;;;;;;;;;;;;;;20.61;62.04;97273.84;4234987;28;5634;-76
2023/05/08 09:12:18;;;;;;;;;;;;;;;20.56;62.35;97273.78;4235107;27;5622;-76
2023/05/08 09:14:24;;;;;;;;;;;;;;;20.51;62.07;97279.09;4230335;27;6602;-76
2023/05/08 09:16:28;;;;;;;;;;;;;;;20.47;62.01;97280.63;4234152;27;5728;-76
2023/05/08 09:18:31;;;;;;;;;;;;;;;20.46;61.97;97276.31;4232199;28;5771;-76
2023/05/08 09:20:35;;;;;;;;;;;;;;;20.45;61.92;97278.19;4234838;28;5760;-76
2023/05/08 09:22:39;;;;;;;;;;;;;;;20.46;61.83;97281.69;4230279;28;5080;-77
2023/05/08 09:24:59;;;;;;;;;;;;;;;20.45;61.86;97274.69;4234648;27;5645;-76
2023/05/08 09:27:04;;;;;;;;;;;;;;;20.44;61.65;97279.25;4228383;28;5720;-76
2023/05/08 09:29:14;;;;;;;;;;;;;;;20.44;61.77;97278.44;4233791;28;5641;-76
2023/05/08 09:31:17;;;;;;;;;;;;;;;20.42;61.67;97280.53;4234601;28;5830;-77
2023/05/08 09:33:22;;;;;;;;;;;;;;;20.43;62.07;97276.81;4227867;28;5673;-77
2023/05/08 09:35:36;;;;;;;;;;;;;;;20.43;61.78;97282.19;4229348;27;5646;-77
2023/05/08 09:37:42;;;;;;;;;;;;;;;20.43;61.90;97277.63;4226924;28;6203;-76
2023/05/08 09:39:46;;;;;;;;;;;;;;;20.49;61.75;97287.38;4233325;28;6024;-76
2023/05/08 09:41:58;;;;;;;;;;;;;;;20.54;61.44;97278.59;4231025;28;5752;-74
2023/05/08 09:44:03;;;;;;;;;;;;;;;20.56;61.34;97282.66;4230791;27;5897;-75
2023/05/08 09:46:26;;;;;;;;;;;;;;;20.58;61.44;97287.78;4234174;27;5629;-75
2023/05/08 09:48:37;;;;;;;;;;;;;;;20.60;61.31;97291.03;4230332;28;5748;-75
2023/05/08 09:50:41;;;;;;;;;;;;;;;20.62;61.25;97291.63;4233210;27;5752;-75
2023/05/08 09:52:47;;;;;;;;;;;;;;;20.64;61.14;97286.81;4233911;28;5653;-75
2023/05/08 09:54:58;;;;;;;;;;;;;;;20.68;61.28;97292.50;4230015;28;5666;-75
2023/05/08 09:57:12;;;;;;;;;;;;;;;20.75;61.12;97291.28;4233670;27;5863;-76
2023/05/08 09:59:26;;;;;;;;;;;;;;;20.81;60.90;97300.22;4233076;28;5669;-76
2023/05/08 10:01:32;;;;;;;;;;;;;;;20.85;60.62;97286.06;4233922;28;5649;-76
2023/05/08 10:03:48;;;;;;;;;;;;;;;20.90;60.54;97288.81;4224904;28;5738;-76
2023/05/08 10:05:51;;;;;;;;;;;;;;;20.93;60.82;97291.00;4227174;28;5064;-76
2023/05/08 10:07:55;;;;;;;;;;;;;;;20.97;60.30;97290.53;4233420;28;5645;-75
2023/05/08 10:10:00;;;;;;;;;;;;;;;20.99;60.58;97286.53;4227630;28;5666;-76
2023/05/08 10:12:03;;;;;;;;;;;;;;;20.99;60.27;97291.09;4233888;27;5752;-76
2023/05/08 10:14:07;;;;;;;;;;;;;;;21.03;60.19;97292.22;4225557;28;5596;-76
2023/05/08 10:16:14;;;;;;;;;;;;;;;21.09;60.24;97288.53;4229027;28;5672;-75
2023/05/08 10:18:24;;;;;;;;;;;;;;;21.11;60.36;97289.09;4231479;28;5657;-76
2023/05/08 10:20:29;;;;;;;;;;;;;;;21.12;60.03;97286.16;4233900;28;5637;-76
2023/05/08 10:22:38;;;;;;;;;;;;;;;21.13;60.00;97295.03;4230924;28;5661;-75
2023/05/08 10:24:44;;;;;;;;;;;;;;;21.15;59.85;97292.91;4230497;28;5645;-75
2023/05/08 10:26:58;;;;;;;;;;;;;;;21.10;59.92;97282.09;4225890;28;5978;-75
2023/05/08 10:29:18;;;;;;;;;;;;;;;21.01;59.86;97283.59;4230045;28;5650;-76
2023/05/08 10:31:24;;;;;;;;;;;;;;;20.99;60.21;97280.34;4233388;28;5642;-76
2023/05/08 10:33:31;;;;;;;;;;;;;;;21.00;59.82;97285.47;4227942;28;5652;-76
2023/05/08 10:35:35;;;;;;;;;;;;;;;21.00;59.95;97281.97;4233440;28;5756;-76
2023/05/08 10:37:41;;;;;;;;;;;;;;;21.01;59.75;97283.59;4232839;27;5841;-75
2023/05/08 10:39:45;;;;;;;;;;;;;;;21.01;59.30;97280.91;4233377;28;6322;-75
2023/05/08 10:41:50;;;;;;;;;;;;;;;21.01;59.67;97278.22;4233354;28;5649;-75
2023/05/08 10:43:54;;;;;;;;;;;;;;;20.99;59.40;97278.47;4233075;28;5669;-76
2023/05/08 10:45:59;;;;;;;;;;;;;;;20.94;59.52;97279.19;4231031;27;5620;-75
2023/05/08 10:48:09;;;;;;;;;;;;;;;20.91;59.33;97279.69;4232992;28;5712;-76
2023/05/08 10:50:26;;;;;;;;;;;;;;;20.89;59.29;97281.81;4233527;28;5685;-76
2023/05/08 10:52:36;;;;;;;;;;;;;;;20.87;59.41;97277.75;4225463;28;5933;-75
2023/05/08 10:55:09;;;;;;;;;;;;;;;20.90;59.36;97275.38;4225626;28;5635;-77
2023/05/08 10:57:13;;;;;;;;;;;;;;;20.93;59.22;97277.56;4228912;28;7668;-76
2023/05/08 10:59:18;;;;;;;;;;;;;;;20.94;58.93;97279.19;4233202;28;5670;-76
2023/05/08 11:01:22;;;;;;;;;;;;;;;20.95;59.03;97277.31;4233696;28;5704;-77
2023/05/08 11:03:26;;;;;;;;;;;;;;;20.98;58.77;97273.34;4230504;28;5668;-76
2023/05/08 11:05:47;;;;;;;;;;;;;;;21.05;58.45;97271.25;4222975;28;5760;-77
2023/05/08 11:07:54;;;;;;;;;;;;;;;21.08;58.70;97265.41;4218092;28;5828;-77
2023/05/08 11:10:12;;;;;;;;;;;;;;;21.09;58.25;97261.66;4232265;28;5645;-76
2023/05/08 11:12:26;;;;;;;;;;;;;;;21.05;58.35;97268.59;4229653;28;5845;-77
2023/05/08 11:14:31;;;;;;;;;;;;;;;21.03;58.18;97262.66;4232313;28;5850;-76
2023/05/08 11:17:06;;;;;;;;;;;;;;;21.06;58.14;97264.81;4233301;28;5837;-77
2023/05/08 11:19:17;;;;;;;;;;;;;;;21.10;58.36;97266.78;4229894;28;5678;-76
2023/05/08 11:21:22;;;;;;;;;;;;;;;21.15;58.10;97252.59;4236998;28;5843;-78
2023/05/08 11:23:26;;;;;;;;;;;;;;;21.17;57.73;97256.66;4236241;27;5657;-77
2023/05/08 11:25:42;;;;;;;;;;;;;;;21.16;57.63;97260.41;4228124;28;5736;-76
2023/05/08 11:28:14;;;;;;;;;;;;;;;21.22;57.85;97261.28;4229713;27;5703;-76
2023/05/08 11:30:23;;;;;;;;;;;;;;;21.24;57.54;97261.84;4235998;28;5641;-76
2023/05/08 11:32:58;;;;;;;;;;;;;;;21.24;57.48;97259.16;4236433;28;6365;-76
2023/05/08 11:35:02;;;;;;;;;;;;;;;21.23;57.64;97254.84;4234544;28;5883;-76
2023/05/08 11:37:10;;;;;;;;;;;;;;;21.22;57.64;97254.03;4227429;28;5728;-76
2023/05/08 11:39:18;;;;;;;;;;;;;;;21.26;57.32;97245.50;4234384;28;5644;-76
2023/05/08 11:41:22;;;;;;;;;;;;;;;21.29;57.45;97248.50;4235217;28;5588;-76
2023/05/08 11:43:27;;;;;;;;;;;;;;;21.35;57.06;97252.06;4228635;28;5708;-75
2023/05/08 11:45:32;;;;;;;;;;;;;;;21.38;57.04;97249.69;4229450;28;5661;-76
2023/05/08 11:47:40;;;;;;;;;;;;;;;21.42;57.11;97252.69;4229281;28;5645;-76
2023/05/08 11:49:43;;;;;;;;;;;;;;;21.44;56.67;97250.56;4233214;28;5747;-76
2023/05/08 11:51:48;;;;;;;;;;;;;;;21.47;56.71;97245.50;4229731;27;5642;-76
2023/05/08 11:53:53;;;;;;;;;;;;;;;21.51;56.95;97240.41;4222646;28;5757;-74
2023/05/08 11:55:57;;;;;;;;;;;;;;;21.56;56.59;97243.19;4224958;28;5793;-75
2023/05/08 11:58:11;;;;;;;;;;;;;;;21.59;56.79;97244.53;4229904;28;5833;-75
2023/05/08 12:00:15;;;;;;;;;;;;;;;21.61;56.31;97239.72;4229446;27;6338;-75
2023/05/08 12:02:19;;;;;;;;;;;;;;;21.63;56.43;97240.28;4227409;27;5661;-76
2023/05/08 12:04:22;;;;;;;;;;;;;;;21.65;56.26;97241.66;4228752;27;5738;-76
2023/05/08 12:06:26;;;;;;;;;;;;;;;21.66;56.42;97240.59;4230820;28;6367;-76
2023/05/08 12:08:30;;;;;;;;;;;;;;;21.66;56.38;97237.91;4226714;27;5744;-76
2023/05/08 12:10:39;;;;;;;;;;;;;;;21.65;56.53;97233.59;4224471;28;5869;-70
2023/05/08 12:12:43;;;;;;;;;;;;;;;21.69;55.97;97231.19;4225496;28;5663;-73
2023/05/08 12:14:50;;;;;;;;;;;;;;;21.64;55.97;97231.16;4227004;28;5818;-79
2023/05/08 12:16:55;;;;;;;;;;;;;;;21.66;56.26;97237.91;4220790;27;5879;-79
2023/05/08 12:19:03;;;;;;;;;;;;;;;21.69;56.32;97248.16;4226267;28;6664;-79
2023/05/08 12:21:08;;;;;;;;;;;;;;;21.68;55.92;97240.34;4234558;28;5641;-79
2023/05/08 12:23:12;;;;;;;;;;;;;;;21.68;55.90;97229.59;4225023;28;5801;-78
2023/05/08 12:25:16;;;;;;;;;;;;;;;21.72;56.03;97246.84;4224401;28;5740;-79
2023/05/08 12:27:21;;;;;;;;;;;;;;;21.72;55.64;97238.75;4234016;28;5724;-79
2023/05/08 12:29:24;;;;;;;;;;;;;;;21.72;55.68;97233.38;4230243;28;5633;-79
2023/05/08 12:31:30;;;;;;;;;;;;;;;21.70;55.97;97232.81;4231450;28;6607;-79
2023/05/08 12:33:34;;;;;;;;;;;;;;;21.70;55.73;97233.63;4227780;28;5767;-80
2023/05/08 12:35:38;;;;;;;;;;;;;;;21.68;55.54;97234.97;4228687;28;5160;-79
2023/05/08 12:37:45;;;;;;;;;;;;;;;21.62;55.83;97230.56;4224327;28;5664;-79
2023/05/08 12:39:48;;;;;;;;;;;;;;;21.59;55.55;97236.47;4224611;28;5778;-79
2023/05/08 12:41:52;;;;;;;;;;;;;;;21.53;55.50;97229.44;4230967;28;5726;-79
2023/05/08 12:43:57;;;;;;;;;;;;;;;21.57;55.61;97239.41;4224034;28;5776;-79
2023/05/08 12:46:01;;;;;;;;;;;;;;;21.57;55.76;97249.38;4217805;28;6438;-79
2023/05/08 12:48:05;;;;;;;;;;;;;;;21.55;55.72;97248.81;4232637;28;5780;-79
2023/05/08 12:50:10;;;;;;;;;;;;;;;21.53;55.60;97242.88;4231445;28;5808;-79
2023/05/08 12:52:14;;;;;;;;;;;;;;;21.54;55.31;97244.50;4227006;28;5657;-79
2023/05/08 12:54:18;;;;;;;;;;;;;;;21.53;55.10;97242.88;4223323;28;5767;-79
2023/05/08 12:56:22;;;;;;;;;;;;;;;21.48;55.63;97238.22;4226040;28;5804;-80
2023/05/08 12:58:29;;;;;;;;;;;;;;;21.50;55.48;97244.97;4228105;28;5888;-79
2023/05/08 13:00:37;;;;;;;;;;;;;;;21.50;55.35;97252.25;4222128;28;5867;-79
2023/05/08 13:02:53;;;;;;;;;;;;;;;21.49;55.21;97248.75;4223156;28;5777;-79
2023/05/08 13:04:57;;;;;;;;;;;;;;;21.50;55.46;97255.75;4219995;28;5793;-80
2023/05/08 13:07:00;;;;;;;;;;;;;;;21.39;55.18;97245.94;4218772;28;5690;-79
2023/05/08 13:09:03;;;;;;;;;;;;;;;21.39;55.31;97248.63;4229325;28;5809;-81
2023/05/08 13:11:06;;;;;;;;;;;;;;;21.39;55.29;97245.13;4227112;28;5795;-80
2023/05/08 13:13:10;;;;;;;;;;;;;;;21.41;55.45;97246.50;4233511;28;5637;-80
2023/05/08 13:15:15;;;;;;;;;;;;;;;21.31;55.12;97224.88;4220113;28;5670;-79
2023/05/08 13:17:22;;;;;;;;;;;;;;;21.39;55.32;97237.03;4226134;28;5798;-79
2023/05/08 13:19:28;;;;;;;;;;;;;;;21.39;55.39;97242.44;4226707;28;5825;-81
2023/05/08 13:21:32;;;;;;;;;;;;;;;21.38;55.26;97232.72;4233035;28;5736;-79
2023/05/08 13:23:44;;;;;;;;;;;;;;;21.36;55.33;97230.31;4230234;28;5759;-80
2023/05/08 13:25:52;;;;;;;;;;;;;;;21.35;55.30;97225.19;4226717;28;5736;-80
2023/05/08 13:27:55;;;;;;;;;;;;;;;21.35;55.64;97226.00;4222843;28;5666;-79
2023/05/08 13:30:01;;;;;;;;;;;;;;;21.37;55.24;97218.47;4234124;28;5922;-79
2023/05/08 13:32:04;;;;;;;;;;;;;;;21.38;55.78;97222.78;4226499;27;5735;-79
2023/05/08 13:34:09;;;;;;;;;;;;;;;21.40;55.24;97220.66;4222090;28;5721;-80
2023/05/08 13:36:12;;;;;;;;;;;;;;;21.40;55.54;97212.59;4225878;28;7743;-80
2023/05/08 13:38:15;;;;;;;;;;;;;;;21.42;55.51;97218.56;4231055;27;5736;-79
2023/05/08 13:40:19;;;;;;;;;;;;;;;21.42;55.52;97215.88;4219257;28;5797;-80
2023/05/08 13:42:22;;;;;;;;;;;;;;;21.45;55.77;97218.03;4223589;27;5674;-79
2023/05/08 13:44:25;;;;;;;;;;;;;;;21.45;55.57;97209.97;4216554;28;5813;-79
2023/05/08 13:46:28;;;;;;;;;;;;;;;21.47;55.36;97213.22;4224687;28;5700;-79
2023/05/08 13:48:32;;;;;;;;;;;;;;;21.50;55.70;97204.63;4231532;27;5897;-78
2023/05/08 13:50:39;;;;;;;;;;;;;;;21.50;55.76;97201.94;4214212;28;6880;-79
2023/05/08 13:52:43;;;;;;;;;;;;;;;21.49;55.43;97204.88;4217044;28;5093;-80
2023/05/08 13:54:49;;;;;;;;;;;;;;;21.53;55.49;97199.84;4225681;28;5638;-80
2023/05/08 13:56:55;;;;;;;;;;;;;;;21.54;55.40;97201.47;4228749;27;5744;-78
2023/05/08 13:58:58;;;;;;;;;;;;;;;21.56;55.47;97204.69;4235955;27;5726;-79
2023/05/08 14:01:04;;;;;;;;;;;;;;;21.58;55.85;97198.00;4228879;28;5732;-80
2023/05/08 14:03:24;;;;;;;;;;;;;;;21.58;55.56;97195.31;4220164;28;5622;-79
2023/05/08 14:05:27;;;;;;;;;;;;;;;21.60;55.50;97193.16;4227953;28;5857;-79
2023/05/08 14:07:32;;;;;;;;;;;;;;;21.61;55.76;97189.41;4224565;27;6047;-78
2023/05/08 14:09:39;;;;;;;;;;;;;;;21.62;55.68;97176.78;4231222;28;5782;-79
2023/05/08 14:11:45;;;;;;;;;;;;;;;21.65;55.90;97177.09;4220757;28;5841;-79